sensor_id;sensor_type;location;lat;lon;timestamp;P1;durP1;ratioP1;P2;durP2;ratioP2
34896;SDS011;43407;51.828;-2.298;2022-08-01T00:00:35;0.60;;;0.60;;
34896;SDS011;43407;51.828;-2.298;2022-08-01T00:03:00;0.52;;;0.40;;
34896;SDS011;43407;51.828;-2.298;2022-08-01T00:05:27;0.40;;;0.40;;
34896;SDS011;43407;51.828;-2.298;2022-08-01T00:07:53;0.47;;;0.47;;
34896;SDS011;43407;51.828;-2.298;2022-08-01T00:10:19;1.38;;;0.50;;
34896;SDS011;43407;51.828;-2.298;2022-08-01T00:12:45;0.73;;;0.68;;
34896;SDS011;43407;51.828;-2.298;2022-08-01T00:15:11;0.75;;;0.70;;
34896;SDS011;43407;51.828;-2.298;2022-08-01T00:17:39;0.50;;;0.50;;
34896;SDS011;43407;51.828;-2.298;2022-08-01T00:20:05;0.30;;;0.30;;
34896;SDS011;43407;51.828;-2.298;2022-08-01T00:22:32;0.40;;;0.40;;
34896;SDS011;43407;51.828;-2.298;2022-08-01T00:24:58;0.40;;;0.40;;
34896;SDS011;43407;51.828;-2.298;2022-08-01T00:27:23;0.60;;;0.55;;
34896;SDS011;43407;51.828;-2.298;2022-08-01T00:29:49;1.10;;;0.60;;
34896;SDS011;43407;51.828;-2.298;2022-08-01T00:32:15;0.70;;;0.70;;
34896;SDS011;43407;51.828;-2.298;2022-08-01T00:34:40;2.25;;;0.60;;
34896;SDS011;43407;51.828;-2.298;2022-08-01T00:37:06;0.60;;;0.60;;
34896;SDS011;43407;51.828;-2.298;2022-08-01T00:39:31;2.05;;;0.85;;
34896;SDS011;43407;51.828;-2.298;2022-08-01T00:42:00;0.70;;;0.70;;
34896;SDS011;43407;51.828;-2.298;2022-08-01T00:44:26;1.02;;;0.50;;
34896;SDS011;43407;51.828;-2.298;2022-08-01T00:46:51;1.55;;;0.70;;
34896;SDS011;43407;51.828;-2.298;2022-08-01T00:49:17;0.82;;;0.60;;
34896;SDS011;43407;51.828;-2.298;2022-08-01T00:51:42;1.38;;;0.57;;
34896;SDS011;43407;51.828;-2.298;2022-08-01T00:54:08;0.50;;;0.50;;
34896;SDS011;43407;51.828;-2.298;2022-08-01T00:56:33;0.75;;;0.63;;
34896;SDS011;43407;51.828;-2.298;2022-08-01T00:58:59;0.82;;;0.60;;
34896;SDS011;43407;51.828;-2.298;2022-08-01T01:01:25;0.73;;;0.50;;
34896;SDS011;43407;51.828;-2.298;2022-08-01T01:03:50;1.02;;;0.60;;
34896;SDS011;43407;51.828;-2.298;2022-08-01T01:06:25;1.27;;;0.50;;
34896;SDS011;43407;51.828;-2.298;2022-08-01T01:14:21;1.02;;;0.65;;
34896;SDS011;43407;51.828;-2.298;2022-08-01T01:16:51;0.50;;;0.50;;
34896;SDS011;43407;51.828;-2.298;2022-08-01T01:19:21;0.68;;;0.50;;
34896;SDS011;43407;51.828;-2.298;2022-08-01T01:24:21;0.35;;;0.35;;
34896;SDS011;43407;51.828;-2.298;2022-08-01T01:29:41;0.68;;;0.50;;
34896;SDS011;43407;51.828;-2.298;2022-08-01T01:32:09;0.40;;;0.40;;
34896;SDS011;43407;51.828;-2.298;2022-08-01T01:35:00;1.63;;;0.70;;
34896;SDS011;43407;51.828;-2.298;2022-08-01T01:37:28;0.60;;;0.60;;
34896;SDS011;43407;51.828;-2.298;2022-08-01T01:39:55;0.60;;;0.60;;
34896;SDS011;43407;51.828;-2.298;2022-08-01T01:42:21;0.85;;;0.70;;
34896;SDS011;43407;51.828;-2.298;2022-08-01T01:44:48;0.82;;;0.75;;
34896;SDS011;43407;51.828;-2.298;2022-08-01T01:47:16;0.60;;;0.60;;
34896;SDS011;43407;51.828;-2.298;2022-08-01T01:49:41;1.17;;;0.70;;
34896;SDS011;43407;51.828;-2.298;2022-08-01T01:52:10;0.88;;;0.60;;
34896;SDS011;43407;51.828;-2.298;2022-08-01T01:54:39;0.70;;;0.60;;
34896;SDS011;43407;51.828;-2.298;2022-08-01T01:57:07;1.00;;;0.50;;
34896;SDS011;43407;51.828;-2.298;2022-08-01T01:59:35;0.80;;;0.60;;
34896;SDS011;43407;51.828;-2.298;2022-08-01T02:02:02;1.00;;;0.60;;
34896;SDS011;43407;51.828;-2.298;2022-08-01T02:04:29;2.60;;;0.50;;
34896;SDS011;43407;51.828;-2.298;2022-08-01T02:06:56;0.60;;;0.60;;
34896;SDS011;43407;51.828;-2.298;2022-08-01T02:09:22;0.80;;;0.70;;
34896;SDS011;43407;51.828;-2.298;2022-08-01T02:11:48;0.68;;;0.68;;
34896;SDS011;43407;51.828;-2.298;2022-08-01T02:14:15;0.50;;;0.50;;
34896;SDS011;43407;51.828;-2.298;2022-08-01T02:16:42;0.50;;;0.50;;
34896;SDS011;43407;51.828;-2.298;2022-08-01T02:19:10;0.70;;;0.60;;
34896;SDS011;43407;51.828;-2.298;2022-08-01T02:21:44;0.52;;;0.52;;
34896;SDS011;43407;51.828;-2.298;2022-08-01T02:24:14;0.77;;;0.50;;
34896;SDS011;43407;51.828;-2.298;2022-08-01T02:26:46;0.85;;;0.65;;
34896;SDS011;43407;51.828;-2.298;2022-08-01T02:29:21;1.02;;;0.50;;
34896;SDS011;43407;51.828;-2.298;2022-08-01T02:31:47;0.68;;;0.60;;
34896;SDS011;43407;51.828;-2.298;2022-08-01T02:34:15;0.95;;;0.50;;
34896;SDS011;43407;51.828;-2.298;2022-08-01T02:36:43;0.73;;;0.73;;
34896;SDS011;43407;51.828;-2.298;2022-08-01T02:39:10;1.00;;;0.80;;
34896;SDS011;43407;51.828;-2.298;2022-08-01T02:41:42;0.60;;;0.60;;
34896;SDS011;43407;51.828;-2.298;2022-08-01T02:44:09;0.95;;;0.60;;
34896;SDS011;43407;51.828;-2.298;2022-08-01T02:46:37;0.47;;;0.47;;
34896;SDS011;43407;51.828;-2.298;2022-08-01T02:49:05;1.02;;;0.40;;
34896;SDS011;43407;51.828;-2.298;2022-08-01T02:51:33;0.93;;;0.70;;
34896;SDS011;43407;51.828;-2.298;2022-08-01T02:54:02;0.80;;;0.60;;
34896;SDS011;43407;51.828;-2.298;2022-08-01T02:56:29;1.40;;;0.63;;
34896;SDS011;43407;51.828;-2.298;2022-08-01T02:59:01;0.90;;;0.68;;
34896;SDS011;43407;51.828;-2.298;2022-08-01T03:01:28;1.80;;;0.68;;
34896;SDS011;43407;51.828;-2.298;2022-08-01T03:03:54;0.82;;;0.82;;
34896;SDS011;43407;51.828;-2.298;2022-08-01T03:06:20;0.82;;;0.60;;
34896;SDS011;43407;51.828;-2.298;2022-08-01T03:08:49;1.95;;;0.73;;
34896;SDS011;43407;51.828;-2.298;2022-08-01T03:11:15;0.60;;;0.60;;
34896;SDS011;43407;51.828;-2.298;2022-08-01T03:13:41;0.80;;;0.50;;
34896;SDS011;43407;51.828;-2.298;2022-08-01T03:16:09;1.95;;;0.85;;
34896;SDS011;43407;51.828;-2.298;2022-08-01T03:18:35;1.75;;;0.80;;
34896;SDS011;43407;51.828;-2.298;2022-08-01T03:21:02;0.70;;;0.68;;
34896;SDS011;43407;51.828;-2.298;2022-08-01T03:23:28;2.05;;;0.70;;
34896;SDS011;43407;51.828;-2.298;2022-08-01T03:25:55;0.93;;;0.88;;
34896;SDS011;43407;51.828;-2.298;2022-08-01T03:28:22;1.38;;;0.70;;
34896;SDS011;43407;51.828;-2.298;2022-08-01T03:30:48;0.88;;;0.60;;
34896;SDS011;43407;51.828;-2.298;2022-08-01T03:33:15;0.63;;;0.63;;
34896;SDS011;43407;51.828;-2.298;2022-08-01T03:35:42;0.90;;;0.70;;
34896;SDS011;43407;51.828;-2.298;2022-08-01T03:38:13;0.93;;;0.70;;
34896;SDS011;43407;51.828;-2.298;2022-08-01T03:40:53;0.93;;;0.70;;
34896;SDS011;43407;51.828;-2.298;2022-08-01T03:43:32;0.85;;;0.70;;
34896;SDS011;43407;51.828;-2.298;2022-08-01T03:46:03;0.98;;;0.70;;
34896;SDS011;43407;51.828;-2.298;2022-08-01T03:48:32;0.70;;;0.70;;
34896;SDS011;43407;51.828;-2.298;2022-08-01T03:51:01;1.20;;;0.70;;
34896;SDS011;43407;51.828;-2.298;2022-08-01T03:53:28;0.80;;;0.73;;
34896;SDS011;43407;51.828;-2.298;2022-08-01T03:55:55;1.00;;;0.70;;
34896;SDS011;43407;51.828;-2.298;2022-08-01T03:58:21;1.55;;;1.00;;
34896;SDS011;43407;51.828;-2.298;2022-08-01T04:00:47;1.75;;;0.80;;
34896;SDS011;43407;51.828;-2.298;2022-08-01T04:03:13;1.23;;;0.60;;
34896;SDS011;43407;51.828;-2.298;2022-08-01T04:05:42;2.17;;;0.90;;
34896;SDS011;43407;51.828;-2.298;2022-08-01T04:08:08;0.95;;;0.60;;
34896;SDS011;43407;51.828;-2.298;2022-08-01T04:10:33;0.82;;;0.75;;
34896;SDS011;43407;51.828;-2.298;2022-08-01T04:12:59;0.60;;;0.60;;
34896;SDS011;43407;51.828;-2.298;2022-08-01T04:15:25;1.40;;;0.70;;
34896;SDS011;43407;51.828;-2.298;2022-08-01T04:17:50;1.13;;;0.95;;
34896;SDS011;43407;51.828;-2.298;2022-08-01T04:20:15;0.70;;;0.70;;
34896;SDS011;43407;51.828;-2.298;2022-08-01T04:22:41;0.82;;;0.80;;
34896;SDS011;43407;51.828;-2.298;2022-08-01T04:25:29;1.13;;;0.60;;
34896;SDS011;43407;51.828;-2.298;2022-08-01T04:27:55;2.17;;;0.73;;
34896;SDS011;43407;51.828;-2.298;2022-08-01T04:30:22;1.30;;;0.65;;
34896;SDS011;43407;51.828;-2.298;2022-08-01T04:32:50;1.23;;;0.70;;
34896;SDS011;43407;51.828;-2.298;2022-08-01T04:35:18;0.88;;;0.88;;
34896;SDS011;43407;51.828;-2.298;2022-08-01T04:37:45;1.23;;;0.68;;
34896;SDS011;43407;51.828;-2.298;2022-08-01T04:40:13;1.42;;;0.60;;
34896;SDS011;43407;51.828;-2.298;2022-08-01T04:42:38;1.13;;;0.55;;
34896;SDS011;43407;51.828;-2.298;2022-08-01T04:45:04;3.08;;;0.60;;
34896;SDS011;43407;51.828;-2.298;2022-08-01T04:47:33;1.02;;;0.70;;
34896;SDS011;43407;51.828;-2.298;2022-08-01T04:49:59;0.90;;;0.73;;
34896;SDS011;43407;51.828;-2.298;2022-08-01T04:52:32;1.50;;;0.80;;
34896;SDS011;43407;51.828;-2.298;2022-08-01T04:55:01;1.45;;;0.90;;
34896;SDS011;43407;51.828;-2.298;2022-08-01T04:57:27;1.17;;;0.80;;
34896;SDS011;43407;51.828;-2.298;2022-08-01T04:59:52;1.08;;;0.70;;
34896;SDS011;43407;51.828;-2.298;2022-08-01T05:02:22;0.90;;;0.63;;
34896;SDS011;43407;51.828;-2.298;2022-08-01T05:04:47;1.25;;;0.60;;
34896;SDS011;43407;51.828;-2.298;2022-08-01T05:07:13;1.42;;;0.73;;
34896;SDS011;43407;51.828;-2.298;2022-08-01T05:09:40;0.70;;;0.70;;
34896;SDS011;43407;51.828;-2.298;2022-08-01T05:12:07;2.58;;;0.90;;
34896;SDS011;43407;51.828;-2.298;2022-08-01T05:14:33;1.15;;;0.85;;
34896;SDS011;43407;51.828;-2.298;2022-08-01T05:17:00;1.00;;;0.90;;
34896;SDS011;43407;51.828;-2.298;2022-08-01T05:19:28;1.33;;;0.98;;
34896;SDS011;43407;51.828;-2.298;2022-08-01T05:21:58;0.70;;;0.70;;
34896;SDS011;43407;51.828;-2.298;2022-08-01T05:24:25;0.93;;;0.55;;
34896;SDS011;43407;51.828;-2.298;2022-08-01T05:26:54;1.10;;;0.90;;
34896;SDS011;43407;51.828;-2.298;2022-08-01T05:29:20;0.70;;;0.70;;
34896;SDS011;43407;51.828;-2.298;2022-08-01T05:31:46;0.77;;;0.70;;
34896;SDS011;43407;51.828;-2.298;2022-08-01T05:34:11;1.15;;;0.80;;
34896;SDS011;43407;51.828;-2.298;2022-08-01T05:36:37;1.10;;;0.75;;
34896;SDS011;43407;51.828;-2.298;2022-08-01T05:39:03;0.90;;;0.70;;
34896;SDS011;43407;51.828;-2.298;2022-08-01T05:41:29;0.55;;;0.50;;
34896;SDS011;43407;51.828;-2.298;2022-08-01T05:43:55;1.35;;;1.10;;
34896;SDS011;43407;51.828;-2.298;2022-08-01T05:46:20;1.52;;;0.82;;
34896;SDS011;43407;51.828;-2.298;2022-08-01T05:48:46;1.13;;;0.77;;
34896;SDS011;43407;51.828;-2.298;2022-08-01T05:51:11;0.90;;;0.80;;
34896;SDS011;43407;51.828;-2.298;2022-08-01T05:53:37;1.05;;;0.82;;
34896;SDS011;43407;51.828;-2.298;2022-08-01T05:56:02;1.10;;;0.80;;
34896;SDS011;43407;51.828;-2.298;2022-08-01T05:58:28;0.88;;;0.88;;
34896;SDS011;43407;51.828;-2.298;2022-08-01T06:00:53;1.23;;;0.73;;
34896;SDS011;43407;51.828;-2.298;2022-08-01T06:03:19;1.92;;;0.80;;
34896;SDS011;43407;51.828;-2.298;2022-08-01T06:05:44;1.38;;;0.90;;
34896;SDS011;43407;51.828;-2.298;2022-08-01T06:08:10;1.50;;;0.82;;
34896;SDS011;43407;51.828;-2.298;2022-08-01T06:10:35;0.82;;;0.60;;
34896;SDS011;43407;51.828;-2.298;2022-08-01T06:13:01;1.75;;;0.68;;
34896;SDS011;43407;51.828;-2.298;2022-08-01T06:15:28;1.08;;;0.55;;
34896;SDS011;43407;51.828;-2.298;2022-08-01T06:17:54;1.55;;;0.85;;
34896;SDS011;43407;51.828;-2.298;2022-08-01T06:20:20;1.90;;;0.77;;
34896;SDS011;43407;51.828;-2.298;2022-08-01T06:22:46;1.67;;;0.90;;
34896;SDS011;43407;51.828;-2.298;2022-08-01T06:25:11;2.97;;;0.80;;
34896;SDS011;43407;51.828;-2.298;2022-08-01T06:27:37;2.60;;;1.05;;
34896;SDS011;43407;51.828;-2.298;2022-08-01T06:30:03;1.95;;;1.00;;
34896;SDS011;43407;51.828;-2.298;2022-08-01T06:32:29;3.05;;;1.10;;
34896;SDS011;43407;51.828;-2.298;2022-08-01T06:34:56;1.17;;;1.00;;
34896;SDS011;43407;51.828;-2.298;2022-08-01T06:37:22;2.40;;;1.27;;
34896;SDS011;43407;51.828;-2.298;2022-08-01T06:39:48;3.45;;;1.33;;
34896;SDS011;43407;51.828;-2.298;2022-08-01T06:42:14;1.15;;;1.00;;
34896;SDS011;43407;51.828;-2.298;2022-08-01T06:44:40;1.80;;;0.90;;
34896;SDS011;43407;51.828;-2.298;2022-08-01T06:47:06;1.65;;;1.17;;
34896;SDS011;43407;51.828;-2.298;2022-08-01T06:49:31;1.80;;;1.05;;
34896;SDS011;43407;51.828;-2.298;2022-08-01T06:51:57;2.95;;;1.10;;
34896;SDS011;43407;51.828;-2.298;2022-08-01T06:54:22;1.48;;;1.10;;
34896;SDS011;43407;51.828;-2.298;2022-08-01T06:56:48;1.48;;;1.10;;
34896;SDS011;43407;51.828;-2.298;2022-08-01T06:59:13;1.70;;;1.10;;
34896;SDS011;43407;51.828;-2.298;2022-08-01T07:01:39;2.08;;;1.10;;
34896;SDS011;43407;51.828;-2.298;2022-08-01T07:04:05;1.42;;;1.25;;
34896;SDS011;43407;51.828;-2.298;2022-08-01T07:06:30;2.60;;;1.60;;
34896;SDS011;43407;51.828;-2.298;2022-08-01T07:08:56;2.10;;;1.40;;
34896;SDS011;43407;51.828;-2.298;2022-08-01T07:11:22;1.17;;;1.08;;
34896;SDS011;43407;51.828;-2.298;2022-08-01T07:13:48;1.35;;;1.23;;
34896;SDS011;43407;51.828;-2.298;2022-08-01T07:16:15;1.88;;;1.33;;
34896;SDS011;43407;51.828;-2.298;2022-08-01T07:18:40;2.55;;;1.35;;
34896;SDS011;43407;51.828;-2.298;2022-08-01T07:21:06;1.40;;;1.20;;
34896;SDS011;43407;51.828;-2.298;2022-08-01T07:23:32;2.22;;;1.20;;
34896;SDS011;43407;51.828;-2.298;2022-08-01T07:25:57;2.85;;;1.15;;
34896;SDS011;43407;51.828;-2.298;2022-08-01T07:28:24;2.13;;;1.33;;
34896;SDS011;43407;51.828;-2.298;2022-08-01T07:30:49;1.02;;;0.90;;
34896;SDS011;43407;51.828;-2.298;2022-08-01T07:33:15;3.42;;;1.40;;
34896;SDS011;43407;51.828;-2.298;2022-08-01T07:35:40;1.00;;;1.00;;
34896;SDS011;43407;51.828;-2.298;2022-08-01T07:38:06;3.47;;;1.38;;
34896;SDS011;43407;51.828;-2.298;2022-08-01T07:40:32;2.67;;;1.20;;
34896;SDS011;43407;51.828;-2.298;2022-08-01T07:42:58;1.92;;;1.15;;
34896;SDS011;43407;51.828;-2.298;2022-08-01T07:45:23;1.52;;;1.20;;
34896;SDS011;43407;51.828;-2.298;2022-08-01T07:47:49;0.93;;;0.85;;
34896;SDS011;43407;51.828;-2.298;2022-08-01T07:50:15;1.60;;;1.10;;
34896;SDS011;43407;51.828;-2.298;2022-08-01T07:52:41;1.88;;;1.40;;
34896;SDS011;43407;51.828;-2.298;2022-08-01T07:55:07;2.13;;;1.00;;
34896;SDS011;43407;51.828;-2.298;2022-08-01T07:57:33;1.88;;;1.20;;
34896;SDS011;43407;51.828;-2.298;2022-08-01T07:59:58;4.88;;;1.25;;
34896;SDS011;43407;51.828;-2.298;2022-08-01T08:02:24;2.35;;;1.25;;
34896;SDS011;43407;51.828;-2.298;2022-08-01T08:04:49;2.17;;;1.00;;
34896;SDS011;43407;51.828;-2.298;2022-08-01T08:07:15;1.20;;;0.90;;
34896;SDS011;43407;51.828;-2.298;2022-08-01T08:09:41;1.38;;;1.10;;
34896;SDS011;43407;51.828;-2.298;2022-08-01T08:12:06;1.52;;;0.90;;
34896;SDS011;43407;51.828;-2.298;2022-08-01T08:14:32;1.45;;;0.70;;
34896;SDS011;43407;51.828;-2.298;2022-08-01T08:16:57;2.25;;;1.20;;
34896;SDS011;43407;51.828;-2.298;2022-08-01T08:19:23;2.45;;;0.90;;
34896;SDS011;43407;51.828;-2.298;2022-08-01T08:21:48;1.80;;;1.05;;
34896;SDS011;43407;51.828;-2.298;2022-08-01T08:24:14;2.13;;;1.00;;
34896;SDS011;43407;51.828;-2.298;2022-08-01T08:26:46;1.27;;;1.00;;
34896;SDS011;43407;51.828;-2.298;2022-08-01T08:29:15;3.10;;;0.95;;
34896;SDS011;43407;51.828;-2.298;2022-08-01T08:31:41;4.47;;;1.10;;
34896;SDS011;43407;51.828;-2.298;2022-08-01T08:34:06;1.40;;;1.00;;
34896;SDS011;43407;51.828;-2.298;2022-08-01T08:36:32;2.30;;;1.00;;
34896;SDS011;43407;51.828;-2.298;2022-08-01T08:38:58;4.60;;;1.10;;
34896;SDS011;43407;51.828;-2.298;2022-08-01T08:41:28;4.72;;;1.23;;
34896;SDS011;43407;51.828;-2.298;2022-08-01T08:43:55;2.75;;;1.05;;
34896;SDS011;43407;51.828;-2.298;2022-08-01T08:46:22;2.13;;;1.00;;
34896;SDS011;43407;51.828;-2.298;2022-08-01T08:48:48;2.80;;;1.08;;
34896;SDS011;43407;51.828;-2.298;2022-08-01T08:51:16;4.63;;;1.58;;
34896;SDS011;43407;51.828;-2.298;2022-08-01T08:53:43;0.90;;;0.80;;
34896;SDS011;43407;51.828;-2.298;2022-08-01T08:56:10;2.78;;;1.02;;
34896;SDS011;43407;51.828;-2.298;2022-08-01T08:58:37;1.65;;;0.93;;
34896;SDS011;43407;51.828;-2.298;2022-08-01T09:01:06;1.70;;;1.17;;
34896;SDS011;43407;51.828;-2.298;2022-08-01T09:03:33;4.10;;;0.80;;
34896;SDS011;43407;51.828;-2.298;2022-08-01T09:05:59;0.98;;;0.80;;
34896;SDS011;43407;51.828;-2.298;2022-08-01T09:08:25;1.30;;;0.80;;
34896;SDS011;43407;51.828;-2.298;2022-08-01T09:10:50;0.93;;;0.75;;
34896;SDS011;43407;51.828;-2.298;2022-08-01T09:13:16;1.17;;;0.70;;
34896;SDS011;43407;51.828;-2.298;2022-08-01T09:15:46;1.85;;;0.98;;
34896;SDS011;43407;51.828;-2.298;2022-08-01T09:21:12;2.80;;;0.80;;
34896;SDS011;43407;51.828;-2.298;2022-08-01T09:26:20;1.13;;;0.70;;
34896;SDS011;43407;51.828;-2.298;2022-08-01T09:28:47;0.80;;;0.68;;
34896;SDS011;43407;51.828;-2.298;2022-08-01T09:31:17;1.60;;;0.80;;
34896;SDS011;43407;51.828;-2.298;2022-08-01T09:33:47;3.15;;;1.05;;
34896;SDS011;43407;51.828;-2.298;2022-08-01T09:36:21;4.30;;;0.90;;
34896;SDS011;43407;51.828;-2.298;2022-08-01T09:38:48;3.45;;;0.68;;
34896;SDS011;43407;51.828;-2.298;2022-08-01T09:41:14;1.45;;;0.82;;
34896;SDS011;43407;51.828;-2.298;2022-08-01T09:43:40;1.15;;;0.90;;
34896;SDS011;43407;51.828;-2.298;2022-08-01T09:46:13;1.33;;;0.70;;
34896;SDS011;43407;51.828;-2.298;2022-08-01T09:48:38;1.20;;;0.80;;
34896;SDS011;43407;51.828;-2.298;2022-08-01T09:51:07;1.15;;;0.73;;
34896;SDS011;43407;51.828;-2.298;2022-08-01T09:53:43;1.17;;;0.80;;
34896;SDS011;43407;51.828;-2.298;2022-08-01T09:56:11;1.08;;;0.70;;
34896;SDS011;43407;51.828;-2.298;2022-08-01T09:58:48;1.60;;;0.82;;
34896;SDS011;43407;51.828;-2.298;2022-08-01T10:01:14;1.02;;;0.70;;
34896;SDS011;43407;51.828;-2.298;2022-08-01T10:03:39;0.88;;;0.60;;
34896;SDS011;43407;51.828;-2.298;2022-08-01T10:06:18;0.70;;;0.70;;
34896;SDS011;43407;51.828;-2.298;2022-08-01T10:08:48;0.80;;;0.50;;
34896;SDS011;43407;51.828;-2.298;2022-08-01T10:11:13;1.05;;;0.60;;
34896;SDS011;43407;51.828;-2.298;2022-08-01T10:13:39;1.00;;;0.60;;
34896;SDS011;43407;51.828;-2.298;2022-08-01T10:16:05;0.88;;;0.57;;
34896;SDS011;43407;51.828;-2.298;2022-08-01T10:18:32;1.23;;;0.60;;
34896;SDS011;43407;51.828;-2.298;2022-08-01T10:21:01;0.40;;;0.40;;
34896;SDS011;43407;51.828;-2.298;2022-08-01T10:23:27;0.88;;;0.70;;
34896;SDS011;43407;51.828;-2.298;2022-08-01T10:26:00;1.02;;;0.90;;
34896;SDS011;43407;51.828;-2.298;2022-08-01T10:28:26;0.90;;;0.52;;
34896;SDS011;43407;51.828;-2.298;2022-08-01T10:30:52;0.85;;;0.77;;
34896;SDS011;43407;51.828;-2.298;2022-08-01T10:33:17;0.65;;;0.55;;
34896;SDS011;43407;51.828;-2.298;2022-08-01T10:35:45;0.65;;;0.50;;
34896;SDS011;43407;51.828;-2.298;2022-08-01T10:38:11;0.50;;;0.50;;
34896;SDS011;43407;51.828;-2.298;2022-08-01T10:40:37;0.60;;;0.60;;
34896;SDS011;43407;51.828;-2.298;2022-08-01T10:43:03;0.57;;;0.57;;
34896;SDS011;43407;51.828;-2.298;2022-08-01T10:45:28;0.40;;;0.38;;
34896;SDS011;43407;51.828;-2.298;2022-08-01T10:48:05;0.70;;;0.52;;
34896;SDS011;43407;51.828;-2.298;2022-08-01T10:50:52;0.40;;;0.40;;
34896;SDS011;43407;51.828;-2.298;2022-08-01T10:53:20;0.60;;;0.60;;
34896;SDS011;43407;51.828;-2.298;2022-08-01T10:58:22;1.30;;;0.70;;
34896;SDS011;43407;51.828;-2.298;2022-08-01T11:03:42;1.80;;;0.60;;
34896;SDS011;43407;51.828;-2.298;2022-08-01T11:06:20;0.50;;;0.45;;
34896;SDS011;43407;51.828;-2.298;2022-08-01T11:08:51;2.28;;;0.60;;
34896;SDS011;43407;51.828;-2.298;2022-08-01T11:11:18;2.22;;;0.70;;
34896;SDS011;43407;51.828;-2.298;2022-08-01T11:16:38;2.80;;;0.60;;
34896;SDS011;43407;51.828;-2.298;2022-08-01T11:19:05;0.98;;;0.50;;
34896;SDS011;43407;51.828;-2.298;2022-08-01T11:32:33;0.85;;;0.55;;
34896;SDS011;43407;51.828;-2.298;2022-08-01T11:35:15;1.17;;;0.77;;
34896;SDS011;43407;51.828;-2.298;2022-08-01T11:37:41;0.95;;;0.60;;
34896;SDS011;43407;51.828;-2.298;2022-08-01T11:40:14;0.70;;;0.70;;
34896;SDS011;43407;51.828;-2.298;2022-08-01T11:42:42;0.50;;;0.50;;
34896;SDS011;43407;51.828;-2.298;2022-08-01T11:45:07;0.45;;;0.45;;
34896;SDS011;43407;51.828;-2.298;2022-08-01T11:47:49;0.50;;;0.40;;
34896;SDS011;43407;51.828;-2.298;2022-08-01T11:50:31;2.15;;;0.60;;
34896;SDS011;43407;51.828;-2.298;2022-08-01T11:52:59;1.13;;;0.67;;
34896;SDS011;43407;51.828;-2.298;2022-08-01T11:55:26;1.42;;;0.80;;
34896;SDS011;43407;51.828;-2.298;2022-08-01T11:58:04;0.65;;;0.52;;
34896;SDS011;43407;51.828;-2.298;2022-08-01T12:00:33;0.60;;;0.60;;
34896;SDS011;43407;51.828;-2.298;2022-08-01T12:05:25;0.73;;;0.50;;
34896;SDS011;43407;51.828;-2.298;2022-08-01T12:07:52;0.50;;;0.50;;
34896;SDS011;43407;51.828;-2.298;2022-08-01T12:10:19;0.60;;;0.60;;
34896;SDS011;43407;51.828;-2.298;2022-08-01T12:12:47;1.17;;;0.70;;
34896;SDS011;43407;51.828;-2.298;2022-08-01T12:15:17;2.13;;;0.63;;
34896;SDS011;43407;51.828;-2.298;2022-08-01T12:17:45;1.25;;;0.60;;
34896;SDS011;43407;51.828;-2.298;2022-08-01T12:20:18;1.60;;;0.70;;
34896;SDS011;43407;51.828;-2.298;2022-08-01T12:22:45;2.43;;;0.60;;
34896;SDS011;43407;51.828;-2.298;2022-08-01T12:25:12;0.70;;;0.50;;
34896;SDS011;43407;51.828;-2.298;2022-08-01T12:27:42;1.15;;;0.65;;
34896;SDS011;43407;51.828;-2.298;2022-08-01T12:30:11;0.68;;;0.60;;
34896;SDS011;43407;51.828;-2.298;2022-08-01T12:32:38;0.73;;;0.68;;
34896;SDS011;43407;51.828;-2.298;2022-08-01T12:37:35;0.65;;;0.50;;
34896;SDS011;43407;51.828;-2.298;2022-08-01T12:40:08;0.85;;;0.55;;
34896;SDS011;43407;51.828;-2.298;2022-08-01T12:42:39;1.00;;;0.60;;
34896;SDS011;43407;51.828;-2.298;2022-08-01T12:45:06;1.35;;;0.60;;
34896;SDS011;43407;51.828;-2.298;2022-08-01T12:47:33;0.50;;;0.50;;
34896;SDS011;43407;51.828;-2.298;2022-08-01T12:50:01;1.52;;;0.60;;
34896;SDS011;43407;51.828;-2.298;2022-08-01T12:52:27;1.35;;;0.60;;
34896;SDS011;43407;51.828;-2.298;2022-08-01T12:57:35;0.70;;;0.70;;
34896;SDS011;43407;51.828;-2.298;2022-08-01T13:00:06;0.75;;;0.60;;
34896;SDS011;43407;51.828;-2.298;2022-08-01T13:02:42;0.98;;;0.68;;
34896;SDS011;43407;51.828;-2.298;2022-08-01T13:05:09;0.60;;;0.60;;
34896;SDS011;43407;51.828;-2.298;2022-08-01T13:07:36;0.60;;;0.60;;
34896;SDS011;43407;51.828;-2.298;2022-08-01T13:10:02;0.60;;;0.60;;
34896;SDS011;43407;51.828;-2.298;2022-08-01T13:12:28;1.52;;;0.80;;
34896;SDS011;43407;51.828;-2.298;2022-08-01T13:14:54;2.75;;;0.90;;
34896;SDS011;43407;51.828;-2.298;2022-08-01T13:17:29;0.52;;;0.52;;
34896;SDS011;43407;51.828;-2.298;2022-08-01T13:19:58;0.70;;;0.70;;
34896;SDS011;43407;51.828;-2.298;2022-08-01T13:22:42;0.70;;;0.70;;
34896;SDS011;43407;51.828;-2.298;2022-08-01T13:27:40;2.03;;;0.55;;
34896;SDS011;43407;51.828;-2.298;2022-08-01T13:30:18;1.15;;;0.60;;
34896;SDS011;43407;51.828;-2.298;2022-08-01T13:33:05;1.00;;;0.60;;
34896;SDS011;43407;51.828;-2.298;2022-08-01T13:35:30;2.40;;;0.68;;
34896;SDS011;43407;51.828;-2.298;2022-08-01T13:37:56;0.57;;;0.50;;
34896;SDS011;43407;51.828;-2.298;2022-08-01T13:40:25;0.50;;;0.50;;
34896;SDS011;43407;51.828;-2.298;2022-08-01T13:42:53;2.28;;;0.60;;
34896;SDS011;43407;51.828;-2.298;2022-08-01T13:45:21;0.60;;;0.60;;
34896;SDS011;43407;51.828;-2.298;2022-08-01T13:47:47;0.45;;;0.45;;
34896;SDS011;43407;51.828;-2.298;2022-08-01T13:50:16;0.50;;;0.50;;
34896;SDS011;43407;51.828;-2.298;2022-08-01T13:52:41;0.60;;;0.60;;
34896;SDS011;43407;51.828;-2.298;2022-08-01T13:55:09;0.65;;;0.65;;
34896;SDS011;43407;51.828;-2.298;2022-08-01T13:57:35;3.15;;;0.60;;
34896;SDS011;43407;51.828;-2.298;2022-08-01T14:00:00;0.70;;;0.70;;
34896;SDS011;43407;51.828;-2.298;2022-08-01T14:02:26;0.50;;;0.50;;
34896;SDS011;43407;51.828;-2.298;2022-08-01T14:04:52;1.13;;;0.70;;
34896;SDS011;43407;51.828;-2.298;2022-08-01T14:07:19;0.75;;;0.70;;
34896;SDS011;43407;51.828;-2.298;2022-08-01T14:09:45;0.65;;;0.65;;
34896;SDS011;43407;51.828;-2.298;2022-08-01T14:12:11;1.30;;;0.65;;
34896;SDS011;43407;51.828;-2.298;2022-08-01T14:14:36;0.68;;;0.68;;
34896;SDS011;43407;51.828;-2.298;2022-08-01T14:17:03;0.60;;;0.60;;
34896;SDS011;43407;51.828;-2.298;2022-08-01T14:19:28;2.15;;;0.80;;
34896;SDS011;43407;51.828;-2.298;2022-08-01T14:21:54;0.47;;;0.47;;
34896;SDS011;43407;51.828;-2.298;2022-08-01T14:24:21;1.38;;;0.93;;
34896;SDS011;43407;51.828;-2.298;2022-08-01T14:26:47;1.15;;;0.75;;
34896;SDS011;43407;51.828;-2.298;2022-08-01T14:29:13;1.73;;;0.63;;
34896;SDS011;43407;51.828;-2.298;2022-08-01T14:31:38;2.28;;;0.60;;
34896;SDS011;43407;51.828;-2.298;2022-08-01T14:34:03;1.88;;;0.63;;
34896;SDS011;43407;51.828;-2.298;2022-08-01T14:36:29;0.80;;;0.70;;
34896;SDS011;43407;51.828;-2.298;2022-08-01T14:38:54;1.83;;;0.70;;
34896;SDS011;43407;51.828;-2.298;2022-08-01T14:41:20;1.17;;;0.75;;
34896;SDS011;43407;51.828;-2.298;2022-08-01T14:43:45;0.70;;;0.70;;
34896;SDS011;43407;51.828;-2.298;2022-08-01T14:46:11;1.00;;;0.70;;
34896;SDS011;43407;51.828;-2.298;2022-08-01T14:48:37;1.83;;;0.70;;
34896;SDS011;43407;51.828;-2.298;2022-08-01T14:51:03;2.05;;;0.60;;
34896;SDS011;43407;51.828;-2.298;2022-08-01T14:53:31;1.52;;;0.95;;
34896;SDS011;43407;51.828;-2.298;2022-08-01T14:55:58;0.98;;;0.65;;
34896;SDS011;43407;51.828;-2.298;2022-08-01T14:58:23;0.68;;;0.65;;
34896;SDS011;43407;51.828;-2.298;2022-08-01T15:00:49;0.60;;;0.60;;
34896;SDS011;43407;51.828;-2.298;2022-08-01T15:03:14;1.00;;;0.63;;
34896;SDS011;43407;51.828;-2.298;2022-08-01T15:05:40;1.95;;;0.80;;
34896;SDS011;43407;51.828;-2.298;2022-08-01T15:08:06;0.50;;;0.50;;
34896;SDS011;43407;51.828;-2.298;2022-08-01T15:10:31;1.02;;;0.50;;
34896;SDS011;43407;51.828;-2.298;2022-08-01T15:12:57;0.50;;;0.50;;
34896;SDS011;43407;51.828;-2.298;2022-08-01T15:15:25;1.90;;;0.60;;
34896;SDS011;43407;51.828;-2.298;2022-08-01T15:17:51;0.30;;;0.30;;
34896;SDS011;43407;51.828;-2.298;2022-08-01T15:20:17;0.47;;;0.47;;